< Cyclone 199604 1996 Season Cyclone 199606 >
Cyclone 199605 (BARRY)
General InformationTrack Information on Google MapsDetailed Wind InformationList of All Images || ResourceGoogle EarthGE AnimationAtom FeedGeoJSON
Detalied Best Track (Time Zone = UTC)
Year Month Day Hour Lat. Long. Pressure (hPa) Wind (kt) Class Image Chart
1996 1 2 06 -14.6 133.0 1004 15 2 Image --
1996 1 2 12 -14.9 134.4 1004 20 2 Image --
1996 1 2 18 -15.2 135.7 1004 20 2 Image --
1996 1 3 00 -15.5 137.4 1004 25 2 Image --
1996 1 3 06 -15.6 138.2 1000 25 2 Image --
1996 1 3 12 -15.2 138.5 998 30 2 Image --
1996 1 3 18 -14.9 138.7 995 35 3 Image --
1996 1 4 00 -14.7 138.8 995 40 3 Image --
1996 1 4 06 -14.7 139.2 990 50 4 Image --
1996 1 4 12 -14.8 139.6 990 55 4 Image --
1996 1 4 18 -14.9 140.0 985 65 5 Image --
1996 1 5 00 -15.5 140.5 970 80 5 Image --
1996 1 5 06 -15.9 140.9 950 100 5 Image --
1996 1 5 12 -16.5 141.4 960 95 5 Image --
1996 1 5 18 -16.8 141.4 975 75 5 Image --
1996 1 6 00 -17.0 141.6 980 60 4 Image --
1996 1 6 06 -17.2 141.9 980 50 4 Image --
1996 1 6 12 -17.5 142.1 985 45 3 Image --
1996 1 6 18 -17.8 142.3 990 40 3 Image --
1996 1 7 00 -18.0 142.5 995 30 2 Image --
1996 1 7 06 -18.7 142.5 995 30 2 Image --
1996 1 7 12 -19.2 143.2 996 25 2 Image --
1996 1 7 18 -19.7 143.6 998 25 2 Image --
1996 1 8 00 -20.1 144.1 998 25 2 Image --
1996 1 8 06 -20.9 144.5 996 25 2 Image --
1996 1 8 12 -21.8 146.0 996 25 2 Image --
1996 1 8 18 -22.8 147.2 996 25 2 Image --
1996 1 9 00 -23.7 148.7 995 25 2 Image --
1996 1 9 06 -24.1 149.2 995 25 2 Image --
< Cyclone 199604 1996 Season Cyclone 199606 >

Help